Terminal Aerodrome Forecast
Issued by NWS

Home | Current Version | Previous Version | Text Only | Print | Product List | Glossary On
Versions: 1 2 3 4 5 6 7 8 9 10 11 12 13 14 15 16 17 18
000
FTUS42 TJSJ 111700
TAFJSJ
TAF
TJSJ 111720Z 1118/1218 05015G22KT P6SM VCSH SCT030 SCT045
     FM112300 08008KT P6SM SCT030
     FM121400 07015G20KT P6SM SCT030 SCT050=

USA.gov is the U.S. government's official web portal to all federal, state and local government web resources and services.